createdAt,value
2022-12-18T00:01:00.206Z,87.36
2022-12-18T00:02:02.016Z,87.32
2022-12-18T00:03:03.852Z,86.92
2022-12-18T00:04:09.077Z,87.17
2022-12-18T00:05:10.978Z,87.12
2022-12-18T00:06:13.182Z,87.12
2022-12-18T00:07:14.868Z,86.93
2022-12-18T00:08:17.349Z,87.48
2022-12-18T00:09:19.049Z,88.00
2022-12-18T00:10:20.714Z,88.23
2022-12-18T00:11:24.820Z,88.39
2022-12-18T00:12:29.807Z,88.74
2022-12-18T00:13:32.077Z,90.43
2022-12-18T00:14:34.242Z,90.74
2022-12-18T00:15:36.848Z,91.81
2022-12-18T00:16:38.629Z,91.57
2022-12-18T00:17:40.331Z,91.69
2022-12-18T00:18:43.002Z,91.41
2022-12-18T00:19:44.689Z,90.23
2022-12-18T00:20:46.365Z,90.60
2022-12-18T00:21:48.025Z,89.60
2022-12-18T00:22:49.687Z,90.34
2022-12-18T00:23:51.726Z,89.75
2022-12-18T00:24:53.413Z,89.66
2022-12-18T00:25:55.229Z,89.53
2022-12-18T00:26:56.900Z,89.18
2022-12-18T00:27:58.564Z,89.30
2022-12-18T00:29:02.472Z,89.17
2022-12-18T00:30:04.843Z,88.93
2022-12-18T00:31:09.327Z,88.80
2022-12-18T00:32:11.024Z,89.12
2022-12-18T00:33:12.712Z,88.88
2022-12-18T00:34:14.735Z,88.24
2022-12-18T00:35:16.462Z,88.51
2022-12-18T00:36:23.803Z,88.17
2022-12-18T00:37:25.471Z,88.24
2022-12-18T00:38:27.168Z,88.13
2022-12-18T00:39:28.892Z,87.81
2022-12-18T00:40:30.618Z,87.96
2022-12-18T00:41:51.406Z,88.15
2022-12-18T00:42:59.351Z,87.82
2022-12-18T00:44:01.339Z,88.26
2022-12-18T00:45:07.625Z,87.66
2022-12-18T00:46:12.465Z,88.23
2022-12-18T00:47:14.160Z,88.44
2022-12-18T00:48:15.858Z,87.85
2022-12-18T00:49:19.928Z,88.14
2022-12-18T00:50:22.559Z,87.95
2022-12-18T00:51:24.940Z,87.53
2022-12-18T00:52:26.610Z,87.40
2022-12-18T00:53:28.280Z,87.43
2022-12-18T00:54:30.013Z,87.43
2022-12-18T00:55:33.092Z,86.79
2022-12-18T00:56:39.359Z,86.99
2022-12-18T00:57:47.381Z,87.48
2022-12-18T00:58:49.407Z,87.36
2022-12-18T00:59:51.086Z,88.26
2022-12-18T01:00:52.797Z,87.43
2022-12-18T01:01:54.617Z,87.88
2022-12-18T01:02:56.414Z,87.87
2022-12-18T01:03:58.157Z,87.74
2022-12-18T01:04:59.829Z,87.61
2022-12-18T01:06:07.604Z,87.90
2022-12-18T01:07:09.258Z,88.24
2022-12-18T01:08:11.220Z,87.97
2022-12-18T01:09:13.183Z,88.93
2022-12-18T01:10:15.301Z,88.73
2022-12-18T01:11:19.038Z,89.71
2022-12-18T01:12:20.721Z,89.40
2022-12-18T01:13:22.454Z,90.59
2022-12-18T01:14:24.179Z,90.28
2022-12-18T01:15:25.877Z,90.55
2022-12-18T01:16:27.908Z,90.26
2022-12-18T01:17:29.697Z,89.89
2022-12-18T01:18:31.414Z,89.93
2022-12-18T01:19:33.254Z,89.57
2022-12-18T01:20:34.925Z,89.59
2022-12-18T01:21:36.611Z,89.81
2022-12-18T01:22:38.408Z,89.97
2022-12-18T01:23:40.668Z,89.77
2022-12-18T01:24:42.589Z,90.49
2022-12-18T01:25:44.268Z,90.35
2022-12-18T01:26:45.969Z,90.86
2022-12-18T01:27:47.614Z,91.16
2022-12-18T01:28:49.336Z,91.35
2022-12-18T01:29:51.037Z,90.93
2022-12-18T01:30:52.811Z,91.07
2022-12-18T01:31:57.236Z,90.93
2022-12-18T01:32:58.918Z,91.71
2022-12-18T01:34:05.320Z,91.66
2022-12-18T01:35:07.548Z,91.61
2022-12-18T01:36:15.193Z,91.58
2022-12-18T01:37:16.921Z,91.55
2022-12-18T01:38:18.879Z,91.67
2022-12-18T01:39:20.614Z,92.55
2022-12-18T01:40:22.733Z,92.15
2022-12-18T01:41:27.497Z,91.89
2022-12-18T01:42:29.204Z,92.28
2022-12-18T01:43:51.082Z,91.74
2022-12-18T01:45:02.131Z,92.16
2022-12-18T01:46:04.311Z,91.76
2022-12-18T01:47:06.402Z,91.91
2022-12-18T01:48:09.971Z,91.12
2022-12-18T01:49:11.766Z,91.25
2022-12-18T01:50:23.504Z,91.56
2022-12-18T01:51:26.848Z,90.63
2022-12-18T01:52:32.018Z,90.92
2022-12-18T01:53:33.715Z,90.69
2022-12-18T01:54:35.379Z,90.24
2022-12-18T01:55:46.009Z,90.47
2022-12-18T01:56:47.711Z,90.65
2022-12-18T01:57:53.507Z,90.44
2022-12-18T01:58:59.569Z,90.94
2022-12-18T02:00:09.713Z,90.81
2022-12-18T02:01:11.649Z,90.52
2022-12-18T02:02:13.911Z,89.91
2022-12-18T02:03:16.291Z,90.43
2022-12-18T02:04:23.848Z,90.01
2022-12-18T02:05:50.514Z,90.25
2022-12-18T02:07:10.632Z,90.49
2022-12-18T02:08:38.626Z,89.94
2022-12-18T02:09:49.698Z,89.98
2022-12-18T02:11:45.931Z,90.19
2022-12-18T02:13:14.848Z,90.36
2022-12-18T02:14:16.502Z,90.05
2022-12-18T02:15:50.334Z,90.02
2022-12-18T02:17:19.983Z,89.84
2022-12-18T02:18:33.645Z,89.51
2022-12-18T02:19:57.001Z,89.80
2022-12-18T02:21:11.771Z,89.76
2022-12-18T02:22:30.954Z,90.08
2022-12-18T02:24:13.937Z,89.53
2022-12-18T02:25:50.749Z,89.57
2022-12-18T02:26:59.489Z,89.50
2022-12-18T02:28:06.998Z,89.12
2022-12-18T02:29:17.465Z,89.02
2022-12-18T02:30:20.221Z,89.29
2022-12-18T02:31:28.390Z,88.93
2022-12-18T02:32:35.389Z,88.67
2022-12-18T02:33:38.703Z,89.33
2022-12-18T02:34:41.751Z,89.07
2022-12-18T02:35:46.829Z,89.26
2022-12-18T02:36:51.052Z,88.89
2022-12-18T02:37:55.507Z,88.49
2022-12-18T02:39:00.032Z,88.00
2022-12-18T02:40:04.638Z,88.66
2022-12-18T02:41:07.384Z,88.27
2022-12-18T02:42:09.239Z,88.27
2022-12-18T02:43:13.039Z,87.57
2022-12-18T02:44:15.525Z,87.39
2022-12-18T02:45:17.510Z,87.65
2022-12-18T02:46:51.321Z,87.79
2022-12-18T02:47:53.023Z,87.33
2022-12-18T02:49:04.174Z,87.01
2022-12-18T02:50:19.239Z,86.99
2022-12-18T02:51:53.089Z,87.17
2022-12-18T02:53:39.927Z,86.87
2022-12-18T02:55:01.680Z,87.18
2022-12-18T02:56:12.119Z,87.28
2022-12-18T02:57:49.187Z,87.04
2022-12-18T02:59:01.768Z,86.93
2022-12-18T03:00:39.221Z,87.54
2022-12-18T03:01:56.682Z,87.03
2022-12-18T03:03:32.451Z,87.26
2022-12-18T03:05:03.050Z,87.74
2022-12-18T03:06:13.887Z,87.87
2022-12-18T03:07:24.744Z,87.50
2022-12-18T03:08:32.637Z,88.22
2022-12-18T03:09:39.493Z,88.38
2022-12-18T03:10:46.627Z,87.58
2022-12-18T03:12:15.526Z,87.87
2022-12-18T03:13:29.414Z,87.53
2022-12-18T03:14:35.223Z,87.29
2022-12-18T03:15:44.100Z,87.25
2022-12-18T03:16:48.528Z,87.00
2022-12-18T03:17:57.875Z,86.86
2022-12-18T03:19:03.929Z,86.88
2022-12-18T03:20:13.745Z,86.70
2022-12-18T03:21:20.550Z,85.85
2022-12-18T03:22:24.784Z,85.67
2022-12-18T03:23:30.605Z,86.11
2022-12-18T03:24:34.383Z,86.29
2022-12-18T03:25:39.542Z,87.21
2022-12-18T03:26:45.716Z,87.09
2022-12-18T03:27:52.531Z,87.07
2022-12-18T03:28:58.729Z,86.67
2022-12-18T03:30:08.466Z,86.83
2022-12-18T03:31:12.638Z,86.60
2022-12-18T03:32:29.015Z,86.21
2022-12-18T03:33:42.595Z,86.19
2022-12-18T03:34:47.099Z,86.67
2022-12-18T03:35:49.126Z,86.99
2022-12-18T03:36:50.841Z,87.04
2022-12-18T03:37:52.849Z,87.00
2022-12-18T03:38:54.628Z,87.10
2022-12-18T03:39:56.449Z,86.98
2022-12-18T03:41:16.449Z,87.23
2022-12-18T03:42:42.416Z,86.74
2022-12-18T03:43:49.755Z,87.57
2022-12-18T03:45:15.119Z,87.60
2022-12-18T03:46:23.181Z,87.85
2022-12-18T03:47:42.879Z,87.78
2022-12-18T03:48:56.831Z,87.95
2022-12-18T03:50:11.087Z,88.08
2022-12-18T03:51:35.251Z,88.65
2022-12-18T03:53:09.001Z,88.79
2022-12-18T03:54:12.823Z,88.81
2022-12-18T03:55:14.737Z,88.88
2022-12-18T03:56:18.537Z,89.05
2022-12-18T03:57:23.160Z,88.54
2022-12-18T03:58:27.818Z,89.50
2022-12-18T03:59:30.743Z,88.47
2022-12-18T04:00:34.108Z,88.81
2022-12-18T04:01:42.994Z,89.30
2022-12-18T04:02:50.804Z,88.76
2022-12-18T04:03:53.538Z,88.62
2022-12-18T04:04:59.350Z,88.79
2022-12-18T04:06:02.125Z,88.75
2022-12-18T04:07:05.359Z,88.87
2022-12-18T04:08:07.175Z,88.82
2022-12-18T04:09:09.266Z,88.76
2022-12-18T04:10:12.895Z,88.85
2022-12-18T04:11:14.604Z,88.82
2022-12-18T04:12:16.334Z,88.05
2022-12-18T04:13:28.672Z,87.94
2022-12-18T04:14:30.380Z,87.79
2022-12-18T04:15:35.746Z,87.98
2022-12-18T04:16:37.511Z,87.81
2022-12-18T04:17:40.133Z,87.31
2022-12-18T04:18:41.837Z,87.08
2022-12-18T04:19:43.621Z,86.79
2022-12-18T04:20:45.290Z,86.69
2022-12-18T04:21:46.959Z,86.62
2022-12-18T04:22:49.239Z,85.59
2022-12-18T04:23:51.120Z,85.73
2022-12-18T04:24:52.789Z,86.03
2022-12-18T04:25:54.446Z,86.13
2022-12-18T04:26:56.139Z,85.37
2022-12-18T04:27:57.800Z,85.73
2022-12-18T04:28:59.446Z,85.27
2022-12-18T04:30:01.143Z,85.04
2022-12-18T04:31:03.557Z,85.30
2022-12-18T04:32:05.447Z,85.30
2022-12-18T04:33:14.675Z,85.67
2022-12-18T04:34:16.465Z,85.07
2022-12-18T04:35:18.160Z,85.18
2022-12-18T04:36:20.144Z,84.85
2022-12-18T04:37:21.833Z,85.13
2022-12-18T04:38:23.558Z,84.92
2022-12-18T04:39:25.432Z,84.88
2022-12-18T04:40:27.793Z,84.29
2022-12-18T04:41:29.505Z,84.79
2022-12-18T04:42:31.188Z,84.26
2022-12-18T04:43:34.014Z,84.03
2022-12-18T04:44:35.654Z,84.25
2022-12-18T04:45:37.368Z,84.05
2022-12-18T04:46:39.310Z,84.68
2022-12-18T04:47:41.013Z,84.44
2022-12-18T04:48:42.683Z,84.18
2022-12-18T04:49:44.351Z,84.43
2022-12-18T04:50:46.038Z,84.33
2022-12-18T04:51:47.761Z,84.78
2022-12-18T04:52:49.466Z,84.33
2022-12-18T04:53:51.135Z,84.39
2022-12-18T04:54:52.846Z,84.81
2022-12-18T04:56:11.692Z,84.35
2022-12-18T04:57:13.505Z,84.37
2022-12-18T04:58:15.215Z,84.70
2022-12-18T04:59:17.041Z,85.05
2022-12-18T05:00:18.934Z,84.92
2022-12-18T05:01:20.788Z,85.35
2022-12-18T05:02:22.730Z,85.63
2022-12-18T05:03:24.535Z,85.47
2022-12-18T05:04:26.366Z,84.98
2022-12-18T05:05:28.168Z,84.91
2022-12-18T05:06:29.926Z,84.95
2022-12-18T05:07:31.793Z,84.96
2022-12-18T05:08:33.655Z,84.44
2022-12-18T05:09:35.664Z,84.58
2022-12-18T05:10:38.503Z,84.87
2022-12-18T05:11:40.281Z,84.87
2022-12-18T05:12:59.320Z,84.93
2022-12-18T05:14:02.007Z,84.42
2022-12-18T05:15:03.960Z,84.20
2022-12-18T05:16:06.701Z,84.29
2022-12-18T05:17:08.694Z,84.52
2022-12-18T05:18:10.440Z,84.07
2022-12-18T05:19:12.569Z,84.52
2022-12-18T05:20:14.978Z,84.35
2022-12-18T05:21:16.687Z,84.39
2022-12-18T05:22:18.436Z,84.29
2022-12-18T05:23:21.868Z,84.31
2022-12-18T05:24:23.547Z,84.61
2022-12-18T05:25:25.354Z,84.17
2022-12-18T05:26:27.052Z,84.75
2022-12-18T05:27:28.723Z,83.94
2022-12-18T05:28:32.150Z,84.12
2022-12-18T05:29:33.859Z,84.26
2022-12-18T05:30:35.522Z,84.26
2022-12-18T05:31:39.917Z,84.21
2022-12-18T05:32:41.816Z,83.92
2022-12-18T05:33:43.968Z,84.19
2022-12-18T05:34:45.885Z,84.26
2022-12-18T05:35:55.794Z,84.83
2022-12-18T05:36:57.447Z,84.95
2022-12-18T05:37:59.128Z,84.53
2022-12-18T05:39:01.603Z,84.92
2022-12-18T05:40:05.799Z,85.04
2022-12-18T05:41:08.488Z,84.97
2022-12-18T05:42:10.905Z,84.71
2022-12-18T05:43:16.540Z,84.94
2022-12-18T05:44:21.144Z,84.08
2022-12-18T05:45:22.829Z,84.14
2022-12-18T05:46:25.417Z,84.00
2022-12-18T05:47:28.325Z,84.52
2022-12-18T05:48:29.980Z,84.04
2022-12-18T05:49:31.672Z,84.71
2022-12-18T05:50:41.152Z,84.05
2022-12-18T05:51:42.809Z,84.24
2022-12-18T05:52:44.485Z,84.82
2022-12-18T05:53:46.769Z,85.06
2022-12-18T05:54:48.460Z,84.61
2022-12-18T05:55:50.348Z,84.63
2022-12-18T05:56:52.056Z,85.07
2022-12-18T05:57:53.740Z,85.12
2022-12-18T05:58:55.562Z,85.14
2022-12-18T05:59:57.302Z,85.81
2022-12-18T06:01:06.668Z,85.06
2022-12-18T06:02:09.011Z,85.93
2022-12-18T06:03:12.845Z,85.24
2022-12-18T06:04:14.744Z,85.00
2022-12-18T06:05:16.466Z,85.57
2022-12-18T06:06:24.551Z,85.67
2022-12-18T06:07:26.211Z,85.61
2022-12-18T06:08:27.940Z,86.27
2022-12-18T06:09:30.455Z,85.72
2022-12-18T06:10:32.457Z,85.80
2022-12-18T06:11:34.119Z,85.39
2022-12-18T06:12:35.871Z,85.44
2022-12-18T06:13:38.506Z,85.42
2022-12-18T06:14:40.435Z,85.47
2022-12-18T06:15:42.120Z,85.54
2022-12-18T06:16:43.875Z,85.27
2022-12-18T06:17:45.607Z,84.39
2022-12-18T06:18:48.210Z,84.53
2022-12-18T06:19:49.896Z,84.50
2022-12-18T06:20:59.034Z,85.25
2022-12-18T06:22:00.858Z,84.50
2022-12-18T06:23:02.532Z,84.05
2022-12-18T06:24:04.383Z,83.33
2022-12-18T06:25:07.094Z,82.47
2022-12-18T06:26:12.668Z,82.33
2022-12-18T06:27:14.615Z,81.49
2022-12-18T06:28:16.341Z,81.60
2022-12-18T06:29:18.023Z,80.84
2022-12-18T06:30:19.913Z,80.87
2022-12-18T06:31:21.732Z,80.43
2022-12-18T06:32:23.478Z,80.18
2022-12-18T06:33:28.654Z,79.72
2022-12-18T06:34:30.325Z,78.97
2022-12-18T06:35:33.294Z,78.96
2022-12-18T06:36:35.030Z,79.18
2022-12-18T06:37:36.755Z,78.43
2022-12-18T06:38:40.383Z,78.00
2022-12-18T06:39:42.210Z,77.39
2022-12-18T06:40:43.877Z,76.99
2022-12-18T06:41:45.827Z,77.98
2022-12-18T06:42:47.655Z,77.68
2022-12-18T06:43:49.616Z,77.17
2022-12-18T06:44:51.552Z,77.90
2022-12-18T06:46:00.189Z,77.27
2022-12-18T06:47:01.927Z,76.98
2022-12-18T06:48:03.681Z,77.08
2022-12-18T06:49:05.391Z,76.94
2022-12-18T06:50:07.599Z,77.20
2022-12-18T06:51:09.710Z,76.92
2022-12-18T06:52:11.379Z,76.84
2022-12-18T06:53:13.294Z,76.66
2022-12-18T06:54:14.970Z,76.68
2022-12-18T06:55:16.771Z,76.41
2022-12-18T06:56:18.479Z,77.19
2022-12-18T06:57:20.147Z,76.65
2022-12-18T06:58:21.817Z,76.47
2022-12-18T06:59:23.570Z,76.87
2022-12-18T07:00:25.292Z,76.54
2022-12-18T07:01:27.406Z,76.46
2022-12-18T07:02:29.251Z,76.81
2022-12-18T07:03:31.627Z,77.18
2022-12-18T07:04:33.295Z,77.33
2022-12-18T07:05:35.232Z,77.36
2022-12-18T07:06:36.911Z,76.81
2022-12-18T07:07:38.613Z,76.40
2022-12-18T07:08:40.381Z,76.10
2022-12-18T07:09:42.049Z,76.47
2022-12-18T07:10:47.553Z,75.79
2022-12-18T07:11:50.725Z,75.27
2022-12-18T07:12:52.420Z,75.55
2022-12-18T07:13:54.384Z,76.50
2022-12-18T07:14:56.232Z,76.46
2022-12-18T07:16:06.825Z,76.67
2022-12-18T07:17:11.536Z,76.68
2022-12-18T07:18:13.284Z,76.37
2022-12-18T07:19:15.610Z,75.70
2022-12-18T07:20:17.303Z,76.05
2022-12-18T07:21:20.428Z,75.64
2022-12-18T07:22:22.675Z,75.83
2022-12-18T07:23:24.357Z,75.93
2022-12-18T07:24:26.287Z,76.24
2022-12-18T07:25:27.941Z,75.74
2022-12-18T07:26:29.625Z,76.57
2022-12-18T07:27:31.296Z,76.45
2022-12-18T07:28:34.509Z,76.54
2022-12-18T07:29:36.264Z,76.11
2022-12-18T07:30:39.474Z,76.15
2022-12-18T07:31:41.446Z,76.41
2022-12-18T07:32:43.225Z,76.77
2022-12-18T07:33:46.177Z,75.83
2022-12-18T07:34:47.933Z,75.48
2022-12-18T07:35:49.598Z,76.40
2022-12-18T07:36:51.249Z,75.58
2022-12-18T07:37:52.914Z,76.33
2022-12-18T07:38:54.749Z,75.81
2022-12-18T07:39:56.500Z,76.47
2022-12-18T07:41:09.908Z,76.48
2022-12-18T07:42:30.530Z,76.01
2022-12-18T07:43:32.437Z,76.36
2022-12-18T07:44:34.298Z,76.17
2022-12-18T07:45:35.978Z,76.50
2022-12-18T07:46:37.857Z,76.19
2022-12-18T07:47:39.595Z,76.04
2022-12-18T07:48:42.893Z,76.38
2022-12-18T07:49:46.466Z,76.29
2022-12-18T07:50:48.361Z,76.72
2022-12-18T07:51:50.267Z,76.53
2022-12-18T07:52:52.048Z,77.11
2022-12-18T07:53:53.752Z,76.99
2022-12-18T07:54:55.504Z,76.49
2022-12-18T07:56:25.350Z,76.34
2022-12-18T07:57:41.879Z,76.52
2022-12-18T07:58:42.146Z,76.43
2022-12-18T07:59:43.975Z,76.22
2022-12-18T08:00:45.647Z,75.42
2022-12-18T08:01:47.451Z,75.63
2022-12-18T08:02:49.296Z,74.32
2022-12-18T08:03:52.168Z,74.15
2022-12-18T08:04:55.095Z,73.05
2022-12-18T08:06:01.250Z,73.01
2022-12-18T08:07:03.086Z,72.89
2022-12-18T08:08:04.859Z,72.23
2022-12-18T08:09:06.727Z,72.52
2022-12-18T08:10:08.792Z,72.56
2022-12-18T08:11:10.496Z,72.30
2022-12-18T08:12:12.165Z,71.52
2022-12-18T08:13:13.837Z,72.06
2022-12-18T08:14:15.862Z,72.13
2022-12-18T08:15:17.941Z,71.86
2022-12-18T08:16:20.224Z,72.01
2022-12-18T08:17:22.490Z,71.72
2022-12-18T08:18:24.248Z,72.32
2022-12-18T08:19:26.012Z,72.10
2022-12-18T08:20:27.786Z,71.57
2022-12-18T08:21:32.449Z,71.82
2022-12-18T08:22:38.029Z,72.25
2022-12-18T08:23:43.328Z,72.06
2022-12-18T08:24:46.055Z,72.51
2022-12-18T08:25:48.159Z,72.55
2022-12-18T08:27:06.636Z,73.00
2022-12-18T08:28:12.060Z,73.00
2022-12-18T08:29:17.332Z,72.66
2022-12-18T08:30:23.242Z,72.92
2022-12-18T08:31:25.837Z,72.69
2022-12-18T08:32:29.028Z,72.27
2022-12-18T08:33:30.800Z,72.34
2022-12-18T08:34:32.486Z,71.84
2022-12-18T08:35:42.506Z,72.37
2022-12-18T08:36:47.242Z,72.08
2022-12-18T08:37:48.914Z,72.42
2022-12-18T08:38:50.664Z,72.38
2022-12-18T08:39:52.932Z,72.42
2022-12-18T08:41:01.765Z,72.53
2022-12-18T08:42:22.420Z,72.90
2022-12-18T08:43:42.937Z,72.81
2022-12-18T08:44:44.804Z,73.07
2022-12-18T08:45:46.634Z,72.63
2022-12-18T08:46:48.416Z,73.18
2022-12-18T08:47:50.075Z,71.91
2022-12-18T08:48:52.771Z,72.18
2022-12-18T08:49:54.507Z,71.47
2022-12-18T08:51:00.678Z,71.43
2022-12-18T08:52:03.808Z,71.48
2022-12-18T08:53:05.708Z,72.16
2022-12-18T08:54:08.018Z,72.04
2022-12-18T08:55:10.773Z,71.72
2022-12-18T08:56:13.555Z,71.35
2022-12-18T08:57:15.243Z,71.10
2022-12-18T08:58:17.054Z,71.66
2022-12-18T08:59:20.212Z,71.72
2022-12-18T09:00:22.547Z,71.28
2022-12-18T09:01:24.837Z,71.25
2022-12-18T09:02:26.741Z,70.99
2022-12-18T09:03:28.721Z,69.91
2022-12-18T09:04:30.464Z,70.30
2022-12-18T09:05:32.135Z,71.27
2022-12-18T09:06:33.785Z,71.03
2022-12-18T09:07:35.695Z,71.31
2022-12-18T09:08:40.792Z,71.29
2022-12-18T09:09:42.751Z,71.15
2022-12-18T09:10:45.770Z,70.82
2022-12-18T09:11:47.565Z,71.52
2022-12-18T09:12:49.248Z,71.04
2022-12-18T09:13:52.157Z,71.27
2022-12-18T09:14:53.897Z,71.12
2022-12-18T09:15:56.883Z,70.92
2022-12-18T09:16:58.738Z,70.65
2022-12-18T09:18:00.464Z,70.72
2022-12-18T09:19:03.660Z,70.91
2022-12-18T09:20:05.781Z,71.49
2022-12-18T09:21:12.770Z,71.40
2022-12-18T09:22:14.564Z,70.42
2022-12-18T09:23:16.235Z,70.86
2022-12-18T09:24:18.771Z,70.84
2022-12-18T09:25:20.463Z,70.29
2022-12-18T09:26:23.548Z,69.94
2022-12-18T09:27:25.216Z,69.05
2022-12-18T09:28:27.208Z,69.55
2022-12-18T09:29:29.521Z,69.45
2022-12-18T09:30:31.409Z,69.19
2022-12-18T09:31:34.527Z,70.32
2022-12-18T09:32:36.193Z,69.50
2022-12-18T09:33:37.960Z,70.01
2022-12-18T09:34:40.017Z,69.85
2022-12-18T09:35:43.762Z,69.97
2022-12-18T09:36:45.461Z,69.89
2022-12-18T09:37:47.509Z,69.54
2022-12-18T09:38:49.212Z,69.73
2022-12-18T09:39:50.869Z,69.10
2022-12-18T09:40:55.107Z,69.59
2022-12-18T09:41:59.417Z,69.63
2022-12-18T09:43:05.698Z,69.07
2022-12-18T09:44:21.591Z,69.17
2022-12-18T09:45:24.619Z,68.53
2022-12-18T09:46:35.101Z,68.45
2022-12-18T09:47:40.388Z,68.42
2022-12-18T09:48:45.644Z,68.28
2022-12-18T09:49:51.218Z,68.84
2022-12-18T09:51:01.146Z,67.67
2022-12-18T09:52:15.706Z,67.82
2022-12-18T09:53:23.706Z,66.92
2022-12-18T09:54:32.945Z,67.23
2022-12-18T09:55:47.067Z,66.66
2022-12-18T09:56:49.429Z,66.44
2022-12-18T09:57:57.576Z,66.13
2022-12-18T09:59:01.045Z,66.52
2022-12-18T10:00:21.593Z,66.99
2022-12-18T10:01:24.233Z,66.96
2022-12-18T10:02:28.233Z,67.39
2022-12-18T10:03:30.001Z,67.07
2022-12-18T10:04:32.982Z,67.49
2022-12-18T10:05:50.887Z,67.58
2022-12-18T10:07:02.038Z,67.20
2022-12-18T10:08:33.583Z,66.70
2022-12-18T10:09:41.765Z,67.83
2022-12-18T10:10:49.138Z,67.63
2022-12-18T10:12:00.794Z,67.06
2022-12-18T10:13:39.847Z,67.80
2022-12-18T10:15:16.767Z,68.57
2022-12-18T10:16:43.509Z,67.96
2022-12-18T10:18:03.754Z,67.60
2022-12-18T10:19:05.351Z,67.11
2022-12-18T10:20:25.638Z,67.45
2022-12-18T10:21:39.040Z,67.31
2022-12-18T10:23:04.356Z,67.57
2022-12-18T10:24:15.312Z,67.12
2022-12-18T10:25:16.956Z,67.21
2022-12-18T10:26:18.912Z,67.78
2022-12-18T10:27:27.264Z,67.72
2022-12-18T10:28:31.695Z,67.03
2022-12-18T10:29:33.520Z,66.89
2022-12-18T10:30:35.244Z,67.59
2022-12-18T10:31:37.197Z,68.16
2022-12-18T10:32:39.067Z,68.23
2022-12-18T10:33:42.351Z,68.98
2022-12-18T10:34:48.159Z,69.73
2022-12-18T10:35:53.637Z,70.45
2022-12-18T10:36:55.297Z,70.84
2022-12-18T10:38:22.933Z,70.07
2022-12-18T10:39:28.901Z,69.79
2022-12-18T10:40:31.272Z,70.12
2022-12-18T10:41:33.439Z,70.26
2022-12-18T10:42:35.320Z,70.81
2022-12-18T10:43:39.136Z,71.01
2022-12-18T10:44:40.787Z,70.85
2022-12-18T10:45:44.423Z,70.78
2022-12-18T10:46:49.027Z,70.12
2022-12-18T10:47:51.113Z,70.68
2022-12-18T10:48:57.215Z,70.63
2022-12-18T10:49:59.225Z,70.98
2022-12-18T10:51:10.831Z,70.76
2022-12-18T10:52:23.918Z,71.23
2022-12-18T10:53:31.836Z,71.23
2022-12-18T10:54:34.939Z,70.01
2022-12-18T10:55:41.143Z,70.78
2022-12-18T10:56:43.698Z,69.88
2022-12-18T10:57:46.159Z,70.58
2022-12-18T10:58:58.120Z,70.63
2022-12-18T11:00:14.423Z,70.00
2022-12-18T11:01:21.215Z,69.34
2022-12-18T11:02:37.151Z,69.66
2022-12-18T11:03:41.991Z,69.79
2022-12-18T11:04:52.677Z,69.58
2022-12-18T11:06:05.406Z,68.57
2022-12-18T11:07:09.533Z,69.08
2022-12-18T11:08:23.861Z,68.77
2022-12-18T11:09:32.522Z,68.33
2022-12-18T11:10:38.899Z,68.70
2022-12-18T11:11:40.575Z,68.31
2022-12-18T11:12:42.271Z,68.39
2022-12-18T11:13:59.934Z,68.80
2022-12-18T11:15:01.672Z,68.05
2022-12-18T11:16:03.456Z,66.65
2022-12-18T11:18:34.433Z,67.00
2022-12-18T11:19:39.917Z,66.48
2022-12-18T11:20:42.260Z,66.51
2022-12-18T11:21:44.173Z,66.93
2022-12-18T11:22:57.299Z,67.44
2022-12-18T11:23:59.136Z,66.73
2022-12-18T11:25:31.256Z,66.92
2022-12-18T11:26:36.952Z,66.15
2022-12-18T11:27:40.813Z,66.39
2022-12-18T11:28:51.755Z,66.91
2022-12-18T11:29:53.602Z,67.46
2022-12-18T11:31:22.281Z,68.11
2022-12-18T11:32:48.234Z,68.28
2022-12-18T11:34:30.645Z,68.89
2022-12-18T11:35:57.081Z,70.18
2022-12-18T11:37:00.891Z,69.99
2022-12-18T11:38:32.259Z,69.96
2022-12-18T11:39:41.828Z,69.91
2022-12-18T11:40:46.765Z,70.24
2022-12-18T11:42:12.880Z,70.88
2022-12-18T11:43:23.003Z,70.53
2022-12-18T11:44:39.543Z,71.40
2022-12-18T11:45:54.935Z,71.52
2022-12-18T11:47:04.342Z,71.63
2022-12-18T11:48:10.360Z,71.91
2022-12-18T11:49:14.941Z,72.13
2022-12-18T11:50:53.709Z,71.84
2022-12-18T11:52:26.100Z,71.71
2022-12-18T11:53:28.880Z,71.94
2022-12-18T11:54:30.576Z,71.77
2022-12-18T11:55:49.003Z,71.95
2022-12-18T11:57:05.498Z,72.20
2022-12-18T11:58:31.152Z,72.04
2022-12-18T12:00:16.046Z,72.37
2022-12-18T12:01:49.854Z,72.91
2022-12-18T12:03:16.092Z,72.19
2022-12-18T12:05:02.925Z,72.71
2022-12-18T12:06:11.654Z,72.25
2022-12-18T12:07:16.695Z,72.43
2022-12-18T12:08:50.584Z,72.58
2022-12-18T12:09:52.194Z,71.97
2022-12-18T12:11:24.378Z,71.89
2022-12-18T12:12:48.552Z,72.27
2022-12-18T12:14:11.364Z,72.09
2022-12-18T12:15:25.310Z,71.27
2022-12-18T12:16:45.071Z,70.62
2022-12-18T12:17:51.422Z,69.29
2022-12-18T12:19:34.795Z,68.90
2022-12-18T12:20:45.020Z,68.72
2022-12-18T12:21:52.353Z,67.36
2022-12-18T12:23:03.955Z,67.43
2022-12-18T12:24:30.715Z,68.20
2022-12-18T12:25:43.027Z,68.35
2022-12-18T12:27:15.224Z,68.52
2022-12-18T12:28:38.653Z,68.29
2022-12-18T12:29:43.283Z,68.75
2022-12-18T12:31:05.199Z,68.29
2022-12-18T12:32:12.836Z,68.65
2022-12-18T12:33:38.015Z,68.33
2022-12-18T12:35:01.741Z,67.74
2022-12-18T12:36:12.416Z,68.64
2022-12-18T12:37:14.089Z,67.70
2022-12-18T12:38:24.894Z,68.61
2022-12-18T12:39:39.301Z,68.61
2022-12-18T12:40:55.170Z,68.24
2022-12-18T12:42:19.229Z,68.38
2022-12-18T12:43:27.919Z,68.10
2022-12-18T12:44:44.370Z,68.52
2022-12-18T12:45:55.733Z,68.46
2022-12-18T12:47:01.727Z,68.63
2022-12-18T12:48:08.285Z,69.10
2022-12-18T12:49:18.049Z,69.06
2022-12-18T12:50:22.763Z,68.79
2022-12-18T12:51:29.354Z,68.93
2022-12-18T12:52:53.926Z,68.84
2022-12-18T12:53:58.541Z,68.69
2022-12-18T12:55:02.067Z,68.35
2022-12-18T12:56:05.509Z,68.43
2022-12-18T12:57:31.879Z,68.39
2022-12-18T12:58:42.623Z,68.53
2022-12-18T13:00:09.511Z,68.67
2022-12-18T13:01:24.299Z,68.49
2022-12-18T13:02:34.986Z,68.29
2022-12-18T13:03:46.178Z,68.02
2022-12-18T13:04:50.919Z,68.76
2022-12-18T13:06:01.499Z,68.89
2022-12-18T13:07:14.276Z,68.43
2022-12-18T13:08:35.315Z,69.06
2022-12-18T13:09:57.429Z,69.41
2022-12-18T13:11:19.763Z,68.89
2022-12-18T13:12:40.230Z,68.80
2022-12-18T13:13:54.762Z,69.00
2022-12-18T13:15:23.464Z,68.96
2022-12-18T13:16:28.366Z,69.98
2022-12-18T13:17:31.990Z,69.84
2022-12-18T13:18:34.636Z,69.43
2022-12-18T13:19:36.391Z,70.60
2022-12-18T13:20:53.634Z,71.06
2022-12-18T13:22:00.164Z,71.28
2022-12-18T13:23:02.104Z,71.31
2022-12-18T13:24:42.417Z,71.78
2022-12-18T13:25:44.116Z,71.45
2022-12-18T13:26:46.027Z,71.68
2022-12-18T13:28:00.683Z,72.37
2022-12-18T13:29:05.201Z,72.65
2022-12-18T13:30:32.588Z,72.98
2022-12-18T13:31:40.295Z,73.43
2022-12-18T13:32:41.969Z,74.24
2022-12-18T13:35:22.888Z,73.83
2022-12-18T13:36:33.794Z,74.04
2022-12-18T13:37:45.369Z,74.51
2022-12-18T13:38:47.176Z,75.00
2022-12-18T13:39:49.306Z,75.19
2022-12-18T13:40:50.963Z,73.51
2022-12-18T13:42:34.891Z,73.98
2022-12-18T13:43:45.638Z,74.78
2022-12-18T13:44:48.809Z,74.23
2022-12-18T13:45:51.236Z,73.31
2022-12-18T13:46:54.352Z,72.83
2022-12-18T13:47:56.496Z,73.82
2022-12-18T13:48:58.626Z,73.83
2022-12-18T13:50:01.754Z,73.99
2022-12-18T13:51:12.073Z,73.96
2022-12-18T13:52:21.616Z,73.38
2022-12-18T13:53:28.862Z,73.71
2022-12-18T13:54:40.873Z,73.55
2022-12-18T13:55:46.358Z,73.77
2022-12-18T13:56:49.839Z,73.32
2022-12-18T13:58:05.215Z,73.35
2022-12-18T13:59:11.648Z,73.43
2022-12-18T14:00:30.934Z,73.53
2022-12-18T14:01:32.772Z,73.62
2022-12-18T14:02:35.852Z,73.87
2022-12-18T14:03:37.703Z,73.97
2022-12-18T14:04:39.719Z,75.10
2022-12-18T14:05:43.129Z,74.74
2022-12-18T14:06:47.971Z,75.46
2022-12-18T14:07:50.351Z,75.94
2022-12-18T14:08:54.033Z,76.60
2022-12-18T14:10:18.641Z,76.21
2022-12-18T14:11:25.298Z,75.58
2022-12-18T14:12:50.679Z,74.99
2022-12-18T14:13:53.496Z,74.65
2022-12-18T14:14:55.560Z,74.85
2022-12-18T14:16:03.764Z,75.25
2022-12-18T14:17:11.425Z,75.33
2022-12-18T14:18:43.444Z,74.86
2022-12-18T14:19:50.987Z,74.92
2022-12-18T14:20:55.877Z,76.18
2022-12-18T14:21:57.626Z,76.11
2022-12-18T14:22:59.789Z,75.97
2022-12-18T14:24:15.236Z,76.10
2022-12-18T14:25:28.062Z,75.99